createdAt,value
2022-07-31T00:00:50.434Z,100314.50
2022-07-31T00:05:51.006Z,100332.75
2022-07-31T00:10:52.954Z,100333.09
2022-07-31T00:15:53.778Z,100325.31
2022-07-31T00:20:54.426Z,100320.56
2022-07-31T00:25:56.503Z,100318.19
2022-07-31T00:30:57.118Z,100321.22
2022-07-31T00:35:57.745Z,100322.38
2022-07-31T00:40:59.705Z,100323.31
2022-07-31T00:46:00.869Z,100327.81
2022-07-31T00:51:01.902Z,100325.44
2022-07-31T00:56:03.897Z,100326.34
2022-07-31T01:01:04.599Z,100330.03
2022-07-31T01:06:05.378Z,100333.69
2022-07-31T01:11:12.175Z,100332.81
2022-07-31T01:16:14.704Z,100335.59
2022-07-31T01:21:21.717Z,100331.41
2022-07-31T01:26:38.985Z,100332.53
2022-07-31T01:31:46.288Z,100331.78
2022-07-31T01:36:55.033Z,100338.09
2022-07-31T01:41:57.317Z,100328.59
2022-07-31T01:47:00.179Z,100327.84
2022-07-31T01:52:05.625Z,100322.91
2022-07-31T01:57:08.812Z,100329.19
2022-07-31T02:02:17.176Z,100327.53
2022-07-31T02:07:19.014Z,100328.56
2022-07-31T02:12:20.352Z,100322.69
2022-07-31T02:17:35.890Z,100309.03
2022-07-31T02:22:55.070Z,100316.66
2022-07-31T02:27:59.185Z,100306.56
2022-07-31T02:33:03.067Z,100298.97
2022-07-31T02:38:04.706Z,100294.16
2022-07-31T02:43:06.605Z,100300.13
2022-07-31T02:48:09.948Z,100294.16
2022-07-31T02:53:15.124Z,100296.03
2022-07-31T02:58:15.892Z,100286.69
2022-07-31T03:03:19.959Z,100278.25
2022-07-31T03:08:20.783Z,100270.44
2022-07-31T03:13:28.412Z,100270.63
2022-07-31T03:18:30.641Z,100280.19
2022-07-31T03:23:36.240Z,100276.06
2022-07-31T03:28:49.570Z,100264.00
2022-07-31T03:33:51.635Z,100259.66
2022-07-31T03:38:52.405Z,100263.22
2022-07-31T03:44:03.789Z,100265.91
2022-07-31T03:49:06.361Z,100269.28
2022-07-31T03:54:08.373Z,100267.59
2022-07-31T03:59:19.281Z,100271.75
2022-07-31T04:04:23.542Z,100271.81
2022-07-31T04:09:31.016Z,100275.88
2022-07-31T04:14:31.669Z,100271.41
2022-07-31T04:19:33.976Z,100283.44
2022-07-31T04:24:34.782Z,100281.53
2022-07-31T04:29:41.338Z,100292.47
2022-07-31T04:34:43.692Z,100295.78
2022-07-31T04:39:44.327Z,100287.69
2022-07-31T04:44:45.653Z,100286.53
2022-07-31T04:49:47.890Z,100287.84
2022-07-31T04:54:51.687Z,100294.34
2022-07-31T04:59:57.698Z,100299.25
2022-07-31T05:05:00.687Z,100297.94
2022-07-31T05:10:06.933Z,100300.81
2022-07-31T05:15:09.983Z,100308.16
2022-07-31T05:20:13.294Z,100304.16
2022-07-31T05:25:31.619Z,100301.97
2022-07-31T05:30:33.638Z,100302.59
2022-07-31T05:35:35.669Z,100301.19
2022-07-31T05:40:36.455Z,100309.19
2022-07-31T05:46:06.414Z,100303.47
2022-07-31T05:51:10.412Z,100310.41
2022-07-31T05:56:11.264Z,100309.38
2022-07-31T06:01:15.724Z,100324.50
2022-07-31T06:06:18.491Z,100312.16
2022-07-31T06:11:19.256Z,100305.31
2022-07-31T06:16:20.154Z,100303.13
2022-07-31T06:21:24.183Z,100292.94
2022-07-31T06:26:27.718Z,100292.56
2022-07-31T06:31:28.606Z,100292.59
2022-07-31T06:36:32.388Z,100286.97
2022-07-31T06:41:48.048Z,100281.19
2022-07-31T06:47:03.810Z,100285.41
2022-07-31T06:52:25.701Z,100281.84
2022-07-31T06:57:27.262Z,100281.81
2022-07-31T07:02:28.670Z,100276.31
2022-07-31T07:07:31.782Z,100295.34
2022-07-31T07:12:34.784Z,100290.38
2022-07-31T07:17:36.576Z,100281.78
2022-07-31T07:22:42.570Z,100285.41
2022-07-31T07:27:45.724Z,100284.41
2022-07-31T07:32:46.401Z,100281.06
2022-07-31T07:37:48.929Z,100279.88
2022-07-31T07:42:50.114Z,100282.59
2022-07-31T07:47:53.724Z,100271.97
2022-07-31T07:53:16.234Z,100269.19
2022-07-31T07:58:35.625Z,100259.63
2022-07-31T08:03:54.753Z,100260.16
2022-07-31T08:08:57.442Z,100263.19
2022-07-31T08:14:16.581Z,100262.09
2022-07-31T08:19:36.155Z,100263.19
2022-07-31T08:24:38.337Z,100254.06
2022-07-31T08:29:39.839Z,100240.91
2022-07-31T08:34:50.200Z,100237.59
2022-07-31T08:39:52.670Z,100238.97
2022-07-31T08:44:53.347Z,100244.97
2022-07-31T08:50:00.642Z,100227.22
2022-07-31T08:55:08.643Z,100234.66
2022-07-31T09:00:13.325Z,100225.00
2022-07-31T09:05:14.360Z,100236.47
2022-07-31T09:10:29.962Z,100228.53
2022-07-31T09:15:32.897Z,100223.84
2022-07-31T09:20:36.548Z,100213.47
2022-07-31T09:25:38.975Z,100216.81
2022-07-31T09:30:55.853Z,100202.97
2022-07-31T09:36:16.230Z,100196.09
2022-07-31T09:41:56.734Z,100203.28
2022-07-31T09:46:50.265Z,100197.59
2022-07-31T09:51:51.107Z,100211.41
2022-07-31T09:56:56.826Z,100192.34
2022-07-31T10:01:59.414Z,100189.63
2022-07-31T10:07:01.404Z,100196.13
2022-07-31T10:12:04.152Z,100162.31
2022-07-31T10:17:09.400Z,100171.06
2022-07-31T10:22:28.412Z,100170.97
2022-07-31T10:27:31.929Z,100181.91
2022-07-31T10:32:43.185Z,100174.63
2022-07-31T10:38:13.160Z,100162.78
2022-07-31T10:43:29.028Z,100166.91
2022-07-31T10:48:52.272Z,100161.00
2022-07-31T10:54:15.878Z,100162.41
2022-07-31T10:59:45.325Z,100170.84
2022-07-31T11:05:13.207Z,100162.91
2022-07-31T11:10:37.304Z,100161.75
2022-07-31T11:16:07.373Z,100156.50
2022-07-31T11:21:37.646Z,100137.56
2022-07-31T11:26:41.331Z,100133.06
2022-07-31T11:31:44.139Z,100123.25
2022-07-31T11:36:48.083Z,100143.97
2022-07-31T11:41:51.786Z,100136.84
2022-07-31T11:46:55.775Z,100143.03
2022-07-31T11:52:01.601Z,100136.03
2022-07-31T11:57:03.055Z,100125.19
2022-07-31T12:02:06.986Z,100139.25
2022-07-31T12:07:09.462Z,100142.31
2022-07-31T12:12:11.792Z,100124.16
2022-07-31T12:17:21.335Z,100108.66
2022-07-31T12:22:22.135Z,100099.09
2022-07-31T12:27:22.754Z,100094.81
2022-07-31T12:32:30.786Z,100091.34
2022-07-31T12:37:45.782Z,100086.88
2022-07-31T12:42:46.429Z,100089.56
2022-07-31T12:47:52.307Z,100078.06
2022-07-31T12:52:53.456Z,100077.38
2022-07-31T12:57:55.032Z,100075.44
2022-07-31T13:02:58.725Z,100068.28
2022-07-31T13:07:59.452Z,100065.97
2022-07-31T13:13:00.278Z,100062.56
2022-07-31T13:18:03.269Z,100053.63
2022-07-31T13:23:05.181Z,100051.19
2022-07-31T13:28:05.905Z,100047.97
2022-07-31T13:33:07.881Z,100039.88
2022-07-31T13:38:08.525Z,100021.63
2022-07-31T13:43:09.144Z,100025.88
2022-07-31T13:48:11.380Z,100028.31
2022-07-31T13:53:12.012Z,100016.16
2022-07-31T13:58:12.834Z,100021.75
2022-07-31T14:03:18.491Z,100014.47
2022-07-31T14:08:30.231Z,100009.41
2022-07-31T14:13:44.165Z,100020.38
2022-07-31T14:18:46.222Z,100011.97
2022-07-31T14:23:46.915Z,100014.56
2022-07-31T14:28:47.540Z,100016.84
2022-07-31T14:33:49.515Z,100020.72
2022-07-31T14:38:50.127Z,100012.06
2022-07-31T14:43:50.778Z,100011.22
2022-07-31T14:48:52.746Z,99995.38
2022-07-31T14:53:53.409Z,100003.63
2022-07-31T14:58:57.666Z,100005.22
2022-07-31T15:04:00.706Z,99989.59
2022-07-31T15:09:01.327Z,100000.88
2022-07-31T15:14:02.016Z,100000.00
2022-07-31T15:19:03.997Z,99999.88
2022-07-31T15:24:04.910Z,99997.09
2022-07-31T15:29:05.635Z,99999.16
2022-07-31T15:34:07.591Z,99995.59
2022-07-31T15:39:08.343Z,99980.31
2022-07-31T15:44:09.051Z,99982.25
2022-07-31T15:49:11.084Z,99993.19
2022-07-31T15:54:14.193Z,99986.25
2022-07-31T15:59:15.914Z,99985.41
2022-07-31T16:04:17.881Z,99985.69
2022-07-31T16:09:19.593Z,99981.25
2022-07-31T16:14:20.257Z,99977.53
2022-07-31T16:19:24.794Z,99960.38
2022-07-31T16:24:25.552Z,99968.91
2022-07-31T16:30:00.882Z,99962.72
2022-07-31T16:34:52.675Z,99948.16
2022-07-31T16:39:55.881Z,99960.38
2022-07-31T16:44:58.297Z,99951.09
2022-07-31T16:50:02.917Z,99961.06
2022-07-31T16:55:03.928Z,99948.34
2022-07-31T17:00:05.544Z,99953.53
2022-07-31T17:05:08.679Z,99951.19
2022-07-31T17:10:10.737Z,99945.72
2022-07-31T17:15:12.231Z,99940.53
2022-07-31T17:20:14.880Z,99941.88
2022-07-31T17:25:15.684Z,99943.63
2022-07-31T17:30:16.956Z,99942.75
2022-07-31T17:35:19.445Z,99936.59
2022-07-31T17:40:41.147Z,99944.75
2022-07-31T17:45:59.336Z,99944.22
2022-07-31T17:51:03.413Z,99933.13
2022-07-31T17:56:05.285Z,99936.94
2022-07-31T18:01:07.399Z,99939.44
2022-07-31T18:06:09.525Z,99949.81
2022-07-31T18:11:10.180Z,99945.97
2022-07-31T18:16:10.830Z,99951.88
2022-07-31T18:21:13.453Z,99952.41
2022-07-31T18:26:14.096Z,99951.19
2022-07-31T18:31:34.613Z,99952.91
2022-07-31T18:36:36.940Z,99945.00
2022-07-31T18:41:38.312Z,99948.97
2022-07-31T18:46:38.945Z,99951.22
2022-07-31T18:51:40.990Z,99947.69
2022-07-31T18:56:42.682Z,99957.66
2022-07-31T19:01:43.382Z,99951.84
2022-07-31T19:06:45.597Z,99961.75
2022-07-31T19:11:50.665Z,99964.09
2022-07-31T19:16:54.691Z,99968.28
2022-07-31T19:21:57.343Z,99971.47
2022-07-31T19:26:58.219Z,99978.59
2022-07-31T19:31:59.398Z,99973.72
2022-07-31T19:37:01.857Z,99987.03
2022-07-31T19:42:11.487Z,99980.47
2022-07-31T19:47:13.075Z,99984.25
2022-07-31T19:52:15.208Z,99983.44
2022-07-31T19:57:15.994Z,99982.69
2022-07-31T20:02:17.186Z,99984.16
2022-07-31T20:07:19.363Z,99982.75
2022-07-31T20:12:20.251Z,99980.50
2022-07-31T20:17:20.974Z,99970.50
2022-07-31T20:22:23.797Z,99978.81
2022-07-31T20:27:24.521Z,99976.66
2022-07-31T20:32:25.210Z,99966.50
2022-07-31T20:37:27.380Z,99965.88
2022-07-31T20:42:28.089Z,99962.03
2022-07-31T20:47:28.798Z,99968.16
2022-07-31T20:52:30.953Z,99959.91
2022-07-31T20:57:31.645Z,99956.00
2022-07-31T21:02:32.274Z,99955.91
2022-07-31T21:07:34.214Z,99951.28
2022-07-31T21:12:34.880Z,99953.09
2022-07-31T21:17:35.943Z,99943.03
2022-07-31T21:22:37.955Z,99945.88
2022-07-31T21:27:39.941Z,99945.59
2022-07-31T21:32:40.922Z,99945.91
2022-07-31T21:37:44.526Z,99941.16
2022-07-31T21:42:47.453Z,99947.91
2022-07-31T21:47:54.605Z,99949.69
2022-07-31T21:52:56.551Z,99952.63
2022-07-31T21:57:59.962Z,99952.63
2022-07-31T22:03:01.137Z,99960.38
2022-07-31T22:08:03.110Z,99965.59
2022-07-31T22:13:05.324Z,99969.06
2022-07-31T22:18:06.737Z,99958.72
2022-07-31T22:23:08.829Z,99965.53
2022-07-31T22:28:09.847Z,99972.41
2022-07-31T22:33:10.678Z,99967.50
2022-07-31T22:38:12.706Z,99960.78
2022-07-31T22:44:11.137Z,99972.78
2022-07-31T22:48:34.473Z,99971.47
2022-07-31T22:53:37.140Z,99977.34
2022-07-31T22:58:37.873Z,99967.69
2022-07-31T23:03:38.542Z,99968.16
2022-07-31T23:08:40.484Z,99972.22
2022-07-31T23:13:41.098Z,99964.16
2022-07-31T23:18:41.743Z,99951.78
2022-07-31T23:23:49.057Z,99941.34
2022-07-31T23:28:50.686Z,99950.50
2022-07-31T23:33:51.719Z,99945.50
2022-07-31T23:38:53.645Z,99941.91
2022-07-31T23:43:55.206Z,99945.22
2022-07-31T23:48:56.338Z,99948.69
2022-07-31T23:53:58.344Z,99946.97
2022-07-31T23:58:58.958Z,99943.00
